sensor_id;sensor_type;location;lat;lon;timestamp;noise_LAeq;noise_LA_min;noise_LA_max;noise_LA01;noise_LA95
67398;Laerm;57728;50.448;18.824;2023-05-09T00:01:12;33.65;32.60;34.76;;
67398;Laerm;57728;50.448;18.824;2023-05-09T00:03:13;33.68;32.65;34.93;;
67398;Laerm;57728;50.448;18.824;2023-05-09T00:05:15;33.71;32.59;34.66;;
67398;Laerm;57728;50.448;18.824;2023-05-09T00:07:17;33.74;32.62;34.75;;
67398;Laerm;57728;50.448;18.824;2023-05-09T00:09:18;33.72;32.61;34.67;;
67398;Laerm;57728;50.448;18.824;2023-05-09T00:11:20;33.75;32.63;34.75;;
67398;Laerm;57728;50.448;18.824;2023-05-09T00:13:22;33.73;32.63;34.66;;
67398;Laerm;57728;50.448;18.824;2023-05-09T00:15:24;33.73;32.78;34.74;;
67398;Laerm;57728;50.448;18.824;2023-05-09T00:17:25;33.85;32.69;37.24;;
67398;Laerm;57728;50.448;18.824;2023-05-09T00:19:29;33.69;32.60;34.75;;
67398;Laerm;57728;50.448;18.824;2023-05-09T00:21:30;33.71;32.68;34.84;;
67398;Laerm;57728;50.448;18.824;2023-05-09T00:23:31;33.72;32.41;34.96;;
67398;Laerm;57728;50.448;18.824;2023-05-09T00:25:33;33.74;32.48;34.76;;
67398;Laerm;57728;50.448;18.824;2023-05-09T00:27:35;33.73;32.68;34.68;;
67398;Laerm;57728;50.448;18.824;2023-05-09T00:29:36;33.87;32.70;36.42;;
67398;Laerm;57728;50.448;18.824;2023-05-09T00:31:38;33.72;32.70;34.73;;
67398;Laerm;57728;50.448;18.824;2023-05-09T00:33:39;33.70;32.57;34.72;;
67398;Laerm;57728;50.448;18.824;2023-05-09T00:35:41;33.71;32.61;34.82;;
67398;Laerm;57728;50.448;18.824;2023-05-09T00:37:43;33.77;32.56;36.42;;
67398;Laerm;57728;50.448;18.824;2023-05-09T00:39:44;33.78;32.59;35.03;;
67398;Laerm;57728;50.448;18.824;2023-05-09T00:41:46;33.73;32.81;34.82;;
67398;Laerm;57728;50.448;18.824;2023-05-09T00:43:48;33.79;32.66;35.03;;
67398;Laerm;57728;50.448;18.824;2023-05-09T00:45:49;33.78;32.44;34.91;;
67398;Laerm;57728;50.448;18.824;2023-05-09T00:47:51;33.71;32.49;34.73;;
67398;Laerm;57728;50.448;18.824;2023-05-09T00:49:55;33.76;32.35;34.94;;
67398;Laerm;57728;50.448;18.824;2023-05-09T00:51:57;33.79;32.79;34.90;;
67398;Laerm;57728;50.448;18.824;2023-05-09T00:53:58;34.38;32.61;37.42;;
67398;Laerm;57728;50.448;18.824;2023-05-09T00:56:01;33.80;32.70;35.11;;
67398;Laerm;57728;50.448;18.824;2023-05-09T00:58:02;33.69;32.52;34.80;;
67398;Laerm;57728;50.448;18.824;2023-05-09T01:00:05;33.71;32.65;34.71;;
67398;Laerm;57728;50.448;18.824;2023-05-09T01:02:07;33.70;32.41;34.63;;
67398;Laerm;57728;50.448;18.824;2023-05-09T01:04:11;33.73;32.75;34.80;;
67398;Laerm;57728;50.448;18.824;2023-05-09T01:07:15;33.75;32.54;34.79;;
67398;Laerm;57728;50.448;18.824;2023-05-09T01:09:07;36.70;32.82;45.83;;
67398;Laerm;57728;50.448;18.824;2023-05-09T01:13:51;33.72;32.78;34.73;;
67398;Laerm;57728;50.448;18.824;2023-05-09T01:17:02;33.73;32.64;34.95;;
67398;Laerm;57728;50.448;18.824;2023-05-09T01:21:26;33.71;32.57;34.80;;
67398;Laerm;57728;50.448;18.824;2023-05-09T01:26:01;33.69;32.63;34.89;;
67398;Laerm;57728;50.448;18.824;2023-05-09T01:28:20;33.70;32.51;34.66;;
67398;Laerm;57728;50.448;18.824;2023-05-09T01:30:34;33.73;32.63;34.78;;
67398;Laerm;57728;50.448;18.824;2023-05-09T01:32:41;33.73;32.51;34.76;;
67398;Laerm;57728;50.448;18.824;2023-05-09T01:34:44;33.78;32.69;35.29;;
67398;Laerm;57728;50.448;18.824;2023-05-09T01:36:54;33.75;32.71;34.92;;
67398;Laerm;57728;50.448;18.824;2023-05-09T01:39:00;33.84;32.48;38.04;;
67398;Laerm;57728;50.448;18.824;2023-05-09T01:41:03;33.70;32.71;34.60;;
67398;Laerm;57728;50.448;18.824;2023-05-09T01:43:11;33.71;32.66;34.64;;
67398;Laerm;57728;50.448;18.824;2023-05-09T01:45:15;33.70;32.56;34.73;;
67398;Laerm;57728;50.448;18.824;2023-05-09T01:47:19;33.73;32.60;34.79;;
67398;Laerm;57728;50.448;18.824;2023-05-09T01:49:25;33.82;32.74;34.98;;
67398;Laerm;57728;50.448;18.824;2023-05-09T01:51:30;33.77;32.76;35.45;;
67398;Laerm;57728;50.448;18.824;2023-05-09T01:53:34;33.89;32.73;38.22;;
67398;Laerm;57728;50.448;18.824;2023-05-09T01:55:40;33.96;32.60;43.63;;
67398;Laerm;57728;50.448;18.824;2023-05-09T01:57:44;33.79;32.62;36.75;;
67398;Laerm;57728;50.448;18.824;2023-05-09T01:59:48;33.88;32.52;39.37;;
67398;Laerm;57728;50.448;18.824;2023-05-09T02:01:52;33.86;32.75;44.55;;
67398;Laerm;57728;50.448;18.824;2023-05-09T02:03:56;33.78;32.55;35.18;;
67398;Laerm;57728;50.448;18.824;2023-05-09T02:06:02;33.90;32.80;38.15;;
67398;Laerm;57728;50.448;18.824;2023-05-09T02:08:07;33.91;32.53;41.62;;
67398;Laerm;57728;50.448;18.824;2023-05-09T02:10:10;33.98;32.75;45.40;;
67398;Laerm;57728;50.448;18.824;2023-05-09T02:12:12;33.78;32.67;46.42;;
67398;Laerm;57728;50.448;18.824;2023-05-09T02:14:14;33.65;32.54;34.74;;
67398;Laerm;57728;50.448;18.824;2023-05-09T02:16:16;33.65;32.45;39.19;;
67398;Laerm;57728;50.448;18.824;2023-05-09T02:18:18;33.68;32.60;37.70;;
67398;Laerm;57728;50.448;18.824;2023-05-09T02:20:20;33.90;32.60;39.16;;
67398;Laerm;57728;50.448;18.824;2023-05-09T02:22:22;34.20;32.73;48.23;;
67398;Laerm;57728;50.448;18.824;2023-05-09T02:24:24;34.04;32.33;39.85;;
67398;Laerm;57728;50.448;18.824;2023-05-09T02:26:30;34.18;32.98;44.85;;
67398;Laerm;57728;50.448;18.824;2023-05-09T02:28:33;34.20;32.62;48.51;;
67398;Laerm;57728;50.448;18.824;2023-05-09T02:30:41;34.15;32.91;42.70;;
67398;Laerm;57728;50.448;18.824;2023-05-09T02:32:50;34.16;32.63;47.02;;
67398;Laerm;57728;50.448;18.824;2023-05-09T02:34:56;33.99;32.48;40.29;;
67398;Laerm;57728;50.448;18.824;2023-05-09T02:36:58;33.93;32.72;36.82;;
67398;Laerm;57728;50.448;18.824;2023-05-09T02:39:01;34.02;32.66;39.42;;
67398;Laerm;57728;50.448;18.824;2023-05-09T02:41:04;34.05;32.71;37.86;;
67398;Laerm;57728;50.448;18.824;2023-05-09T02:43:05;34.17;32.65;37.93;;
67398;Laerm;57728;50.448;18.824;2023-05-09T02:45:07;34.47;32.79;42.86;;
67398;Laerm;57728;50.448;18.824;2023-05-09T02:47:10;35.45;32.87;45.35;;
67398;Laerm;57728;50.448;18.824;2023-05-09T02:49:11;35.47;32.82;45.53;;
67398;Laerm;57728;50.448;18.824;2023-05-09T02:51:13;35.44;32.78;49.25;;
67398;Laerm;57728;50.448;18.824;2023-05-09T02:53:15;34.05;32.74;38.49;;
67398;Laerm;57728;50.448;18.824;2023-05-09T02:55:16;35.36;32.90;44.72;;
67398;Laerm;57728;50.448;18.824;2023-05-09T02:57:18;34.82;32.91;43.61;;
67398;Laerm;57728;50.448;18.824;2023-05-09T02:59:19;34.38;33.00;41.58;;
67398;Laerm;57728;50.448;18.824;2023-05-09T03:01:21;34.21;32.79;38.04;;
67398;Laerm;57728;50.448;18.824;2023-05-09T03:03:23;34.20;33.00;37.30;;
67398;Laerm;57728;50.448;18.824;2023-05-09T03:05:25;34.22;32.80;37.34;;
67398;Laerm;57728;50.448;18.824;2023-05-09T03:07:26;34.22;32.85;39.18;;
67398;Laerm;57728;50.448;18.824;2023-05-09T03:09:28;34.17;32.98;38.22;;
67398;Laerm;57728;50.448;18.824;2023-05-09T03:11:30;34.20;32.88;38.40;;
67398;Laerm;57728;50.448;18.824;2023-05-09T03:13:31;34.34;32.89;40.73;;
67398;Laerm;57728;50.448;18.824;2023-05-09T03:15:33;33.95;32.80;37.03;;
67398;Laerm;57728;50.448;18.824;2023-05-09T03:17:35;34.04;32.72;37.25;;
67398;Laerm;57728;50.448;18.824;2023-05-09T03:19:36;34.14;32.93;42.64;;
67398;Laerm;57728;50.448;18.824;2023-05-09T03:21:38;34.09;32.75;37.96;;
67398;Laerm;57728;50.448;18.824;2023-05-09T03:23:40;34.10;32.77;38.92;;
67398;Laerm;57728;50.448;18.824;2023-05-09T03:25:41;35.48;33.07;39.72;;
67398;Laerm;57728;50.448;18.824;2023-05-09T03:27:43;34.15;32.81;40.65;;
67398;Laerm;57728;50.448;18.824;2023-05-09T03:29:48;34.12;32.91;39.26;;
67398;Laerm;57728;50.448;18.824;2023-05-09T03:31:51;34.39;32.86;38.48;;
67398;Laerm;57728;50.448;18.824;2023-05-09T03:33:53;34.30;33.06;40.88;;
67398;Laerm;57728;50.448;18.824;2023-05-09T03:35:54;34.52;32.96;45.35;;
67398;Laerm;57728;50.448;18.824;2023-05-09T03:37:56;34.44;33.03;40.57;;
67398;Laerm;57728;50.448;18.824;2023-05-09T03:39:58;34.90;33.23;41.05;;
67398;Laerm;57728;50.448;18.824;2023-05-09T03:42:00;34.72;33.04;42.65;;
67398;Laerm;57728;50.448;18.824;2023-05-09T03:44:03;34.07;32.81;36.02;;
67398;Laerm;57728;50.448;18.824;2023-05-09T03:46:07;34.08;32.95;36.21;;
67398;Laerm;57728;50.448;18.824;2023-05-09T03:48:09;34.31;33.04;44.01;;
67398;Laerm;57728;50.448;18.824;2023-05-09T03:50:16;34.20;32.83;39.49;;
67398;Laerm;57728;50.448;18.824;2023-05-09T03:52:21;34.12;33.04;39.25;;
67398;Laerm;57728;50.448;18.824;2023-05-09T03:54:23;34.35;33.07;41.36;;
67398;Laerm;57728;50.448;18.824;2023-05-09T03:56:25;34.62;32.95;41.91;;
67398;Laerm;57728;50.448;18.824;2023-05-09T03:58:27;34.15;32.87;39.21;;
67398;Laerm;57728;50.448;18.824;2023-05-09T04:00:29;34.72;32.78;41.70;;
67398;Laerm;57728;50.448;18.824;2023-05-09T04:02:41;34.10;32.96;41.58;;
67398;Laerm;57728;50.448;18.824;2023-05-09T04:04:46;34.21;32.92;38.97;;
67398;Laerm;57728;50.448;18.824;2023-05-09T04:06:48;33.96;32.62;35.42;;
67398;Laerm;57728;50.448;18.824;2023-05-09T04:08:51;34.15;32.84;36.49;;
67398;Laerm;57728;50.448;18.824;2023-05-09T04:10:53;34.21;32.91;37.82;;
67398;Laerm;57728;50.448;18.824;2023-05-09T04:12:55;34.29;32.96;38.74;;
67398;Laerm;57728;50.448;18.824;2023-05-09T04:14:56;34.84;32.94;50.92;;
67398;Laerm;57728;50.448;18.824;2023-05-09T04:17:00;34.24;32.89;47.28;;
67398;Laerm;57728;50.448;18.824;2023-05-09T04:19:01;34.15;32.90;38.28;;
67398;Laerm;57728;50.448;18.824;2023-05-09T04:21:03;34.51;32.82;41.57;;
67398;Laerm;57728;50.448;18.824;2023-05-09T04:23:05;34.25;32.88;37.82;;
67398;Laerm;57728;50.448;18.824;2023-05-09T04:25:07;34.93;32.74;50.22;;
67398;Laerm;57728;50.448;18.824;2023-05-09T04:27:12;34.45;32.83;45.13;;
67398;Laerm;57728;50.448;18.824;2023-05-09T04:29:14;34.72;32.86;39.75;;
67398;Laerm;57728;50.448;18.824;2023-05-09T04:31:20;35.56;33.01;53.07;;
67398;Laerm;57728;50.448;18.824;2023-05-09T04:33:24;36.28;33.12;45.36;;
67398;Laerm;57728;50.448;18.824;2023-05-09T04:35:27;34.73;33.16;39.45;;
67398;Laerm;57728;50.448;18.824;2023-05-09T04:37:29;36.04;33.12;47.90;;
67398;Laerm;57728;50.448;18.824;2023-05-09T04:39:31;34.09;32.79;36.93;;
67398;Laerm;57728;50.448;18.824;2023-05-09T04:41:40;37.47;33.13;47.79;;
67398;Laerm;57728;50.448;18.824;2023-05-09T04:43:44;34.90;33.05;39.61;;
67398;Laerm;57728;50.448;18.824;2023-05-09T04:45:46;34.43;32.95;39.47;;
67398;Laerm;57728;50.448;18.824;2023-05-09T04:47:49;34.66;33.00;40.66;;
67398;Laerm;57728;50.448;18.824;2023-05-09T04:49:51;34.72;33.01;45.50;;
67398;Laerm;57728;50.448;18.824;2023-05-09T04:51:52;36.91;33.14;45.36;;
67398;Laerm;57728;50.448;18.824;2023-05-09T04:53:54;34.41;33.04;40.45;;
67398;Laerm;57728;50.448;18.824;2023-05-09T04:56:00;34.43;32.67;38.68;;
67398;Laerm;57728;50.448;18.824;2023-05-09T04:58:03;34.32;32.81;38.77;;
67398;Laerm;57728;50.448;18.824;2023-05-09T05:00:06;34.26;32.84;39.00;;
67398;Laerm;57728;50.448;18.824;2023-05-09T05:02:08;34.07;32.63;36.53;;
67398;Laerm;57728;50.448;18.824;2023-05-09T05:04:10;34.17;32.77;40.25;;
67398;Laerm;57728;50.448;18.824;2023-05-09T05:06:12;36.11;32.65;49.73;;
67398;Laerm;57728;50.448;18.824;2023-05-09T05:08:15;34.11;32.77;38.40;;
67398;Laerm;57728;50.448;18.824;2023-05-09T05:10:17;34.58;32.87;42.54;;
67398;Laerm;57728;50.448;18.824;2023-05-09T05:12:23;34.27;32.56;40.65;;
67398;Laerm;57728;50.448;18.824;2023-05-09T05:14:25;34.00;32.64;37.46;;
67398;Laerm;57728;50.448;18.824;2023-05-09T05:16:27;33.97;32.80;37.53;;
67398;Laerm;57728;50.448;18.824;2023-05-09T05:18:29;34.29;32.77;38.80;;
67398;Laerm;57728;50.448;18.824;2023-05-09T05:20:30;33.88;32.68;35.70;;
67398;Laerm;57728;50.448;18.824;2023-05-09T05:22:32;34.04;32.81;38.12;;
67398;Laerm;57728;50.448;18.824;2023-05-09T05:24:34;34.03;32.58;36.71;;
67398;Laerm;57728;50.448;18.824;2023-05-09T05:26:36;33.96;32.80;37.50;;
67398;Laerm;57728;50.448;18.824;2023-05-09T05:28:37;34.42;32.76;47.13;;
67398;Laerm;57728;50.448;18.824;2023-05-09T05:30:40;34.18;32.85;38.39;;
67398;Laerm;57728;50.448;18.824;2023-05-09T05:32:42;34.34;32.86;39.67;;
67398;Laerm;57728;50.448;18.824;2023-05-09T05:34:45;34.30;32.85;45.20;;
67398;Laerm;57728;50.448;18.824;2023-05-09T05:36:47;34.40;32.89;40.53;;
67398;Laerm;57728;50.448;18.824;2023-05-09T05:38:48;34.63;32.94;40.92;;
67398;Laerm;57728;50.448;18.824;2023-05-09T05:40:50;34.38;32.90;40.58;;
67398;Laerm;57728;50.448;18.824;2023-05-09T05:42:52;34.30;32.69;39.84;;
67398;Laerm;57728;50.448;18.824;2023-05-09T05:44:54;34.71;32.79;45.28;;
67398;Laerm;57728;50.448;18.824;2023-05-09T05:46:55;34.47;32.90;42.40;;
67398;Laerm;57728;50.448;18.824;2023-05-09T05:48:57;33.99;32.77;38.29;;
67398;Laerm;57728;50.448;18.824;2023-05-09T05:50:59;34.79;32.64;42.45;;
67398;Laerm;57728;50.448;18.824;2023-05-09T05:53:04;34.90;33.31;39.35;;
67398;Laerm;57728;50.448;18.824;2023-05-09T05:55:08;34.90;32.92;40.53;;
67398;Laerm;57728;50.448;18.824;2023-05-09T05:57:10;34.84;33.03;41.29;;
67398;Laerm;57728;50.448;18.824;2023-05-09T05:59:11;34.91;32.92;40.27;;
67398;Laerm;57728;50.448;18.824;2023-05-09T06:01:13;34.86;32.89;47.81;;
67398;Laerm;57728;50.448;18.824;2023-05-09T06:03:14;34.25;32.76;38.88;;
67398;Laerm;57728;50.448;18.824;2023-05-09T06:05:28;34.54;32.54;40.11;;
67398;Laerm;57728;50.448;18.824;2023-05-09T06:07:30;34.67;32.80;41.98;;
67398;Laerm;57728;50.448;18.824;2023-05-09T06:09:32;34.35;32.91;39.60;;
67398;Laerm;57728;50.448;18.824;2023-05-09T06:11:33;34.60;32.92;40.97;;
67398;Laerm;57728;50.448;18.824;2023-05-09T06:13:35;34.65;33.09;40.49;;
67398;Laerm;57728;50.448;18.824;2023-05-09T06:15:39;34.87;32.89;41.59;;
67398;Laerm;57728;50.448;18.824;2023-05-09T06:17:41;34.93;32.86;42.86;;
67398;Laerm;57728;50.448;18.824;2023-05-09T06:19:43;34.40;32.49;43.21;;
67398;Laerm;57728;50.448;18.824;2023-05-09T06:21:44;34.57;32.74;42.18;;
67398;Laerm;57728;50.448;18.824;2023-05-09T06:23:45;35.93;33.15;44.88;;
67398;Laerm;57728;50.448;18.824;2023-05-09T06:25:47;34.91;33.02;45.58;;
67398;Laerm;57728;50.448;18.824;2023-05-09T06:27:49;34.47;32.75;40.53;;
67398;Laerm;57728;50.448;18.824;2023-05-09T06:29:50;34.52;32.78;42.31;;
67398;Laerm;57728;50.448;18.824;2023-05-09T06:31:53;34.56;32.80;43.45;;
67398;Laerm;57728;50.448;18.824;2023-05-09T06:33:54;34.09;32.45;36.73;;
67398;Laerm;57728;50.448;18.824;2023-05-09T06:35:55;33.90;32.66;38.35;;
67398;Laerm;57728;50.448;18.824;2023-05-09T06:37:59;34.80;32.92;42.21;;
67398;Laerm;57728;50.448;18.824;2023-05-09T06:40:01;34.22;32.20;42.64;;
67398;Laerm;57728;50.448;18.824;2023-05-09T06:42:02;34.01;32.50;38.06;;
67398;Laerm;57728;50.448;18.824;2023-05-09T06:44:12;33.85;32.44;37.29;;
67398;Laerm;57728;50.448;18.824;2023-05-09T06:46:13;34.22;32.74;40.18;;
67398;Laerm;57728;50.448;18.824;2023-05-09T06:48:14;34.26;32.54;39.26;;
67398;Laerm;57728;50.448;18.824;2023-05-09T06:50:16;34.43;32.73;38.32;;
67398;Laerm;57728;50.448;18.824;2023-05-09T06:52:17;34.69;32.86;40.56;;
67398;Laerm;57728;50.448;18.824;2023-05-09T06:54:21;34.54;32.66;44.94;;
67398;Laerm;57728;50.448;18.824;2023-05-09T06:56:23;33.99;32.60;38.52;;
67398;Laerm;57728;50.448;18.824;2023-05-09T06:58:27;35.02;32.92;42.32;;
67398;Laerm;57728;50.448;18.824;2023-05-09T07:00:28;34.34;32.62;40.22;;
67398;Laerm;57728;50.448;18.824;2023-05-09T07:02:30;35.68;32.78;46.01;;
67398;Laerm;57728;50.448;18.824;2023-05-09T07:04:32;36.15;33.00;45.30;;
67398;Laerm;57728;50.448;18.824;2023-05-09T07:06:33;35.93;33.14;48.51;;
67398;Laerm;57728;50.448;18.824;2023-05-09T07:08:35;35.02;33.01;46.92;;
67398;Laerm;57728;50.448;18.824;2023-05-09T07:10:36;34.91;32.84;46.73;;
67398;Laerm;57728;50.448;18.824;2023-05-09T07:12:40;35.65;32.93;43.23;;
67398;Laerm;57728;50.448;18.824;2023-05-09T07:14:42;34.33;32.56;39.12;;
67398;Laerm;57728;50.448;18.824;2023-05-09T07:16:43;35.53;32.98;49.05;;
67398;Laerm;57728;50.448;18.824;2023-05-09T07:18:46;34.68;33.14;39.62;;
67398;Laerm;57728;50.448;18.824;2023-05-09T07:20:49;35.25;33.02;43.80;;
67398;Laerm;57728;50.448;18.824;2023-05-09T07:22:50;35.81;32.98;51.60;;
67398;Laerm;57728;50.448;18.824;2023-05-09T07:24:52;35.05;32.61;50.55;;
67398;Laerm;57728;50.448;18.824;2023-05-09T07:26:54;35.87;33.16;58.46;;
67398;Laerm;57728;50.448;18.824;2023-05-09T07:28:55;36.29;33.30;49.16;;
67398;Laerm;57728;50.448;18.824;2023-05-09T07:30:56;36.75;33.10;48.74;;
67398;Laerm;57728;50.448;18.824;2023-05-09T07:32:58;36.52;33.41;47.55;;
67398;Laerm;57728;50.448;18.824;2023-05-09T07:34:59;36.72;33.30;52.92;;
67398;Laerm;57728;50.448;18.824;2023-05-09T07:37:01;36.71;33.34;53.08;;
67398;Laerm;57728;50.448;18.824;2023-05-09T07:39:03;36.87;33.60;51.75;;
67398;Laerm;57728;50.448;18.824;2023-05-09T07:41:05;35.29;32.92;49.89;;
67398;Laerm;57728;50.448;18.824;2023-05-09T07:43:06;37.01;33.72;51.64;;
67398;Laerm;57728;50.448;18.824;2023-05-09T07:45:09;35.71;33.27;57.44;;
67398;Laerm;57728;50.448;18.824;2023-05-09T07:47:10;35.96;33.11;47.01;;
67398;Laerm;57728;50.448;18.824;2023-05-09T07:49:11;35.74;33.06;54.81;;
67398;Laerm;57728;50.448;18.824;2023-05-09T07:51:13;35.42;32.82;50.07;;
67398;Laerm;57728;50.448;18.824;2023-05-09T07:53:15;36.09;33.12;54.07;;
67398;Laerm;57728;50.448;18.824;2023-05-09T07:55:16;35.69;33.11;51.58;;
67398;Laerm;57728;50.448;18.824;2023-05-09T07:57:18;34.92;33.23;43.84;;
67398;Laerm;57728;50.448;18.824;2023-05-09T07:59:19;35.22;33.00;45.73;;
67398;Laerm;57728;50.448;18.824;2023-05-09T08:01:21;34.16;32.74;45.59;;
67398;Laerm;57728;50.448;18.824;2023-05-09T08:03:23;34.28;32.64;39.15;;
67398;Laerm;57728;50.448;18.824;2023-05-09T08:05:24;35.43;33.26;45.23;;
67398;Laerm;57728;50.448;18.824;2023-05-09T08:07:25;36.22;33.65;42.57;;
67398;Laerm;57728;50.448;18.824;2023-05-09T08:09:27;36.06;33.32;49.17;;
67398;Laerm;57728;50.448;18.824;2023-05-09T08:11:29;34.76;32.92;41.36;;
67398;Laerm;57728;50.448;18.824;2023-05-09T08:13:32;34.50;32.94;39.70;;
67398;Laerm;57728;50.448;18.824;2023-05-09T08:15:34;34.48;32.90;42.03;;
67398;Laerm;57728;50.448;18.824;2023-05-09T08:17:35;35.21;33.09;46.39;;
67398;Laerm;57728;50.448;18.824;2023-05-09T08:19:36;35.54;33.29;41.96;;
67398;Laerm;57728;50.448;18.824;2023-05-09T08:21:38;34.60;32.86;38.73;;
67398;Laerm;57728;50.448;18.824;2023-05-09T08:23:40;35.32;32.97;42.64;;
67398;Laerm;57728;50.448;18.824;2023-05-09T08:25:41;35.54;32.98;48.12;;
67398;Laerm;57728;50.448;18.824;2023-05-09T08:27:43;35.33;33.22;42.71;;
67398;Laerm;57728;50.448;18.824;2023-05-09T08:29:44;34.99;32.91;47.90;;
67398;Laerm;57728;50.448;18.824;2023-05-09T08:31:46;34.55;32.73;43.31;;
67398;Laerm;57728;50.448;18.824;2023-05-09T08:33:48;35.26;33.21;45.84;;
67398;Laerm;57728;50.448;18.824;2023-05-09T08:35:53;35.77;32.93;54.71;;
67398;Laerm;57728;50.448;18.824;2023-05-09T08:37:54;34.19;32.69;42.72;;
67398;Laerm;57728;50.448;18.824;2023-05-09T08:39:56;35.67;33.04;48.57;;
67398;Laerm;57728;50.448;18.824;2023-05-09T08:41:59;35.80;33.24;51.85;;
67398;Laerm;57728;50.448;18.824;2023-05-09T08:44:00;34.14;32.78;42.97;;
67398;Laerm;57728;50.448;18.824;2023-05-09T08:46:08;35.22;32.88;44.84;;
67398;Laerm;57728;50.448;18.824;2023-05-09T08:48:10;34.26;32.78;36.15;;
67398;Laerm;57728;50.448;18.824;2023-05-09T08:50:13;34.37;32.99;38.50;;
67398;Laerm;57728;50.448;18.824;2023-05-09T08:52:16;34.28;32.74;37.39;;
67398;Laerm;57728;50.448;18.824;2023-05-09T08:54:18;34.52;33.00;42.24;;
67398;Laerm;57728;50.448;18.824;2023-05-09T08:56:19;36.24;33.05;47.91;;
67398;Laerm;57728;50.448;18.824;2023-05-09T08:58:22;36.88;33.34;46.86;;
67398;Laerm;57728;50.448;18.824;2023-05-09T09:00:25;36.50;33.01;51.45;;
67398;Laerm;57728;50.448;18.824;2023-05-09T09:02:28;34.92;33.26;45.08;;
67398;Laerm;57728;50.448;18.824;2023-05-09T09:04:31;35.47;33.38;45.03;;
67398;Laerm;57728;50.448;18.824;2023-05-09T09:06:34;35.37;33.32;47.43;;
67398;Laerm;57728;50.448;18.824;2023-05-09T09:08:36;34.64;32.66;42.01;;
67398;Laerm;57728;50.448;18.824;2023-05-09T09:10:40;34.38;32.84;41.15;;
67398;Laerm;57728;50.448;18.824;2023-05-09T09:12:47;34.41;32.92;38.56;;
67398;Laerm;57728;50.448;18.824;2023-05-09T09:14:53;34.72;33.00;42.63;;
67398;Laerm;57728;50.448;18.824;2023-05-09T09:16:57;35.79;33.54;44.91;;
67398;Laerm;57728;50.448;18.824;2023-05-09T09:18:59;34.33;32.91;38.14;;
67398;Laerm;57728;50.448;18.824;2023-05-09T09:21:11;36.34;33.01;66.13;;
67398;Laerm;57728;50.448;18.824;2023-05-09T09:23:19;36.16;33.51;57.91;;
67398;Laerm;57728;50.448;18.824;2023-05-09T09:25:20;35.35;33.50;41.87;;
67398;Laerm;57728;50.448;18.824;2023-05-09T09:27:22;35.52;33.62;41.31;;
67398;Laerm;57728;50.448;18.824;2023-05-09T09:29:24;42.32;34.06;65.62;;
67398;Laerm;57728;50.448;18.824;2023-05-09T09:31:30;37.40;34.24;47.14;;
67398;Laerm;57728;50.448;18.824;2023-05-09T09:33:34;37.88;33.84;58.36;;
67398;Laerm;57728;50.448;18.824;2023-05-09T09:35:40;37.06;33.71;52.24;;
67398;Laerm;57728;50.448;18.824;2023-05-09T09:37:43;35.69;33.53;52.29;;
67398;Laerm;57728;50.448;18.824;2023-05-09T09:39:55;36.34;33.36;47.90;;
67398;Laerm;57728;50.448;18.824;2023-05-09T09:42:10;37.63;33.41;51.07;;
67398;Laerm;57728;50.448;18.824;2023-05-09T09:44:18;37.85;33.79;52.90;;
67398;Laerm;57728;50.448;18.824;2023-05-09T09:46:19;37.06;33.43;54.03;;
67398;Laerm;57728;50.448;18.824;2023-05-09T09:48:26;36.29;33.44;49.14;;
67398;Laerm;57728;50.448;18.824;2023-05-09T09:50:30;35.01;33.08;42.17;;
67398;Laerm;57728;50.448;18.824;2023-05-09T09:52:31;34.60;32.71;42.22;;
67398;Laerm;57728;50.448;18.824;2023-05-09T09:54:33;35.00;33.16;49.14;;
67398;Laerm;57728;50.448;18.824;2023-05-09T09:56:49;34.61;32.90;40.42;;
67398;Laerm;57728;50.448;18.824;2023-05-09T09:59:15;36.27;33.14;54.06;;
67398;Laerm;57728;50.448;18.824;2023-05-09T10:01:17;35.30;33.26;50.49;;
67398;Laerm;57728;50.448;18.824;2023-05-09T10:03:20;35.30;33.19;44.14;;
67398;Laerm;57728;50.448;18.824;2023-05-09T10:07:24;35.11;33.29;42.89;;
67398;Laerm;57728;50.448;18.824;2023-05-09T10:09:27;35.26;33.15;42.45;;
67398;Laerm;57728;50.448;18.824;2023-05-09T10:11:28;34.82;32.89;41.14;;
67398;Laerm;57728;50.448;18.824;2023-05-09T10:13:34;36.24;33.44;48.82;;
67398;Laerm;57728;50.448;18.824;2023-05-09T10:15:37;35.40;33.15;43.13;;
67398;Laerm;57728;50.448;18.824;2023-05-09T10:17:39;36.06;33.32;50.12;;
67398;Laerm;57728;50.448;18.824;2023-05-09T10:19:46;35.05;33.22;41.93;;
67398;Laerm;57728;50.448;18.824;2023-05-09T10:21:56;37.15;32.97;57.85;;
67398;Laerm;57728;50.448;18.824;2023-05-09T10:24:00;35.19;33.24;45.95;;
67398;Laerm;57728;50.448;18.824;2023-05-09T10:26:22;35.91;33.53;49.96;;
67398;Laerm;57728;50.448;18.824;2023-05-09T10:28:32;35.69;33.22;46.91;;
67398;Laerm;57728;50.448;18.824;2023-05-09T10:30:53;34.86;33.10;41.48;;
67398;Laerm;57728;50.448;18.824;2023-05-09T10:33:03;36.13;33.43;47.65;;
67398;Laerm;57728;50.448;18.824;2023-05-09T10:35:10;36.50;33.54;51.79;;
67398;Laerm;57728;50.448;18.824;2023-05-09T10:37:14;34.91;33.29;46.89;;
67398;Laerm;57728;50.448;18.824;2023-05-09T10:39:18;34.74;33.27;42.81;;
67398;Laerm;57728;50.448;18.824;2023-05-09T10:41:21;35.24;33.04;46.28;;
67398;Laerm;57728;50.448;18.824;2023-05-09T10:43:23;37.10;33.46;56.17;;
67398;Laerm;57728;50.448;18.824;2023-05-09T10:45:26;34.42;32.96;37.71;;
67398;Laerm;57728;50.448;18.824;2023-05-09T10:47:29;34.96;33.28;41.49;;
67398;Laerm;57728;50.448;18.824;2023-05-09T10:49:34;34.86;32.77;42.88;;
67398;Laerm;57728;50.448;18.824;2023-05-09T10:51:36;34.43;32.83;39.62;;
67398;Laerm;57728;50.448;18.824;2023-05-09T10:53:47;35.95;33.29;46.34;;
67398;Laerm;57728;50.448;18.824;2023-05-09T10:55:54;34.55;33.07;46.84;;
67398;Laerm;57728;50.448;18.824;2023-05-09T10:58:21;35.88;33.38;42.48;;
67398;Laerm;57728;50.448;18.824;2023-05-09T11:00:24;35.26;33.11;47.07;;
67398;Laerm;57728;50.448;18.824;2023-05-09T11:02:25;35.46;33.39;44.85;;
67398;Laerm;57728;50.448;18.824;2023-05-09T11:04:33;38.04;33.77;55.80;;
67398;Laerm;57728;50.448;18.824;2023-05-09T11:08:46;35.03;33.14;41.59;;
67398;Laerm;57728;50.448;18.824;2023-05-09T11:10:48;35.95;33.14;44.42;;
67398;Laerm;57728;50.448;18.824;2023-05-09T11:12:59;36.01;32.98;58.03;;
67398;Laerm;57728;50.448;18.824;2023-05-09T11:15:07;34.50;32.86;39.83;;
67398;Laerm;57728;50.448;18.824;2023-05-09T11:17:36;35.07;32.92;50.65;;
67398;Laerm;57728;50.448;18.824;2023-05-09T11:19:55;35.25;33.10;41.91;;
67398;Laerm;57728;50.448;18.824;2023-05-09T11:24:17;34.86;33.01;44.37;;
67398;Laerm;57728;50.448;18.824;2023-05-09T11:26:21;36.57;33.61;50.47;;
67398;Laerm;57728;50.448;18.824;2023-05-09T11:28:32;35.53;33.39;45.54;;
67398;Laerm;57728;50.448;18.824;2023-05-09T11:30:42;34.13;33.01;36.32;;
67398;Laerm;57728;50.448;18.824;2023-05-09T11:32:51;35.20;33.08;40.71;;
67398;Laerm;57728;50.448;18.824;2023-05-09T11:35:19;34.55;32.83;45.47;;
67398;Laerm;57728;50.448;18.824;2023-05-09T11:37:21;35.66;32.86;51.51;;